createdAt,value
2022-10-05T00:02:26.272Z,6.23
2022-10-05T00:04:55.585Z,6.70
2022-10-05T00:07:24.317Z,6.53
2022-10-05T00:09:59.075Z,6.30
2022-10-05T00:12:28.208Z,6.87
2022-10-05T00:15:00.907Z,6.70
2022-10-05T00:17:30.143Z,7.20
2022-10-05T00:19:57.005Z,7.10
2022-10-05T00:22:31.884Z,6.83
2022-10-05T00:25:01.945Z,6.87
2022-10-05T00:27:36.124Z,6.90
2022-10-05T00:30:13.357Z,7.20
2022-10-05T00:32:39.938Z,6.37
2022-10-05T00:35:07.001Z,6.60
2022-10-05T00:37:33.681Z,6.40
2022-10-05T00:40:00.325Z,6.47
2022-10-05T00:42:51.862Z,6.97
2022-10-05T00:45:27.358Z,6.70
2022-10-05T00:48:12.535Z,6.50
2022-10-05T00:51:02.972Z,6.77
2022-10-05T00:54:02.264Z,7.23
2022-10-05T00:56:53.258Z,6.83
2022-10-05T00:59:25.692Z,6.60
2022-10-05T01:02:18.435Z,7.47
2022-10-05T01:04:55.899Z,6.63
2022-10-05T01:07:53.216Z,6.83
2022-10-05T01:10:28.912Z,6.83
2022-10-05T01:13:08.701Z,6.73
2022-10-05T01:15:51.640Z,7.03
2022-10-05T01:18:56.453Z,7.07
2022-10-05T01:21:25.879Z,6.90
2022-10-05T01:24:16.882Z,6.67
2022-10-05T01:27:11.491Z,6.93
2022-10-05T01:30:02.735Z,6.43
2022-10-05T01:32:42.921Z,7.00
2022-10-05T01:35:30.311Z,6.73
2022-10-05T01:38:11.894Z,7.03
2022-10-05T01:41:22.853Z,7.03
2022-10-05T01:44:06.491Z,6.57
2022-10-05T01:46:43.769Z,7.37
2022-10-05T01:49:46.201Z,7.30
2022-10-05T01:52:32.164Z,7.10
2022-10-05T01:55:14.137Z,7.07
2022-10-05T01:57:54.176Z,7.53
2022-10-05T02:00:20.993Z,7.40
2022-10-05T02:02:52.397Z,7.90
2022-10-05T02:05:27.773Z,7.17
2022-10-05T02:08:01.723Z,7.13
2022-10-05T02:10:37.044Z,7.57
2022-10-05T02:13:15.506Z,7.33
2022-10-05T02:15:52.861Z,7.30
2022-10-05T02:18:31.501Z,6.73
2022-10-05T02:21:02.224Z,7.43
2022-10-05T02:23:33.580Z,8.00
2022-10-05T02:26:01.409Z,9.07
2022-10-05T02:28:44.025Z,8.57
2022-10-05T02:31:14.096Z,8.37
2022-10-05T02:33:40.658Z,9.03
2022-10-05T02:36:17.074Z,8.40
2022-10-05T02:38:48.821Z,8.83
2022-10-05T02:41:34.042Z,10.60
2022-10-05T02:44:24.283Z,9.97
2022-10-05T02:47:05.107Z,9.23
2022-10-05T02:49:44.884Z,9.03
2022-10-05T02:52:26.789Z,9.37
2022-10-05T02:55:13.653Z,9.23
2022-10-05T02:57:45.672Z,9.30
2022-10-05T03:00:18.070Z,9.37
2022-10-05T03:03:08.370Z,9.03
2022-10-05T03:05:47.034Z,9.40
2022-10-05T03:08:24.917Z,8.87
2022-10-05T03:11:04.343Z,9.43
2022-10-05T03:13:36.848Z,9.33
2022-10-05T03:16:26.559Z,8.83
2022-10-05T03:18:59.159Z,8.83
2022-10-05T03:21:46.042Z,8.50
2022-10-05T03:24:31.538Z,10.23
2022-10-05T03:27:09.801Z,9.93
2022-10-05T03:29:47.506Z,11.07
2022-10-05T03:32:47.699Z,10.77
2022-10-05T03:35:34.789Z,9.57
2022-10-05T03:38:19.487Z,10.17
2022-10-05T03:40:47.000Z,10.53
2022-10-05T03:43:34.281Z,11.47
2022-10-05T03:46:11.800Z,10.57
2022-10-05T03:48:56.663Z,11.07
2022-10-05T03:51:31.202Z,12.73
2022-10-05T03:54:09.988Z,11.67
2022-10-05T03:56:46.185Z,11.73
2022-10-05T03:59:20.608Z,9.87
2022-10-05T04:02:01.318Z,9.87
2022-10-05T04:04:37.293Z,11.03
2022-10-05T04:07:06.206Z,10.83
2022-10-05T04:09:37.371Z,12.23
2022-10-05T04:12:19.718Z,11.83
2022-10-05T04:14:51.050Z,10.47
2022-10-05T04:17:27.603Z,10.00
2022-10-05T04:20:06.167Z,9.77
2022-10-05T04:22:46.048Z,9.93
2022-10-05T04:25:22.658Z,9.30
2022-10-05T04:28:16.038Z,8.87
2022-10-05T04:30:46.985Z,9.43
2022-10-05T04:33:15.884Z,10.03
2022-10-05T04:36:02.795Z,9.97
2022-10-05T04:38:35.408Z,11.57
2022-10-05T04:41:30.326Z,10.93
2022-10-05T04:44:10.252Z,12.47
2022-10-05T04:46:47.087Z,12.77
2022-10-05T04:49:35.146Z,12.00
2022-10-05T04:52:32.788Z,11.33
2022-10-05T04:55:27.322Z,11.20
2022-10-05T04:58:17.076Z,11.10
2022-10-05T05:01:12.347Z,10.00
2022-10-05T05:03:58.035Z,10.07
2022-10-05T05:06:37.642Z,12.20
2022-10-05T05:09:21.238Z,11.43
2022-10-05T05:12:18.446Z,12.93
2022-10-05T05:15:22.533Z,12.03
2022-10-05T05:18:17.125Z,11.80
2022-10-05T05:20:57.126Z,11.67
2022-10-05T05:23:44.294Z,10.97
2022-10-05T05:26:29.489Z,11.30
2022-10-05T05:29:02.144Z,11.43
2022-10-05T05:31:48.205Z,11.27
2022-10-05T05:34:36.930Z,12.03
2022-10-05T05:37:51.298Z,11.60
2022-10-05T05:40:17.759Z,11.23
2022-10-05T05:43:06.636Z,11.17
2022-10-05T05:45:56.629Z,11.40
2022-10-05T05:48:37.894Z,11.20
2022-10-05T05:51:10.750Z,11.33
2022-10-05T05:53:45.418Z,12.27
2022-10-05T05:56:20.931Z,12.90
2022-10-05T05:59:15.754Z,12.67
2022-10-05T06:01:47.729Z,13.43
2022-10-05T06:04:41.293Z,13.40
2022-10-05T06:07:16.123Z,13.90
2022-10-05T06:09:53.875Z,15.13
2022-10-05T06:12:30.218Z,13.70
2022-10-05T06:15:26.354Z,14.50
2022-10-05T06:17:56.327Z,12.70
2022-10-05T06:20:38.191Z,13.77
2022-10-05T06:23:14.228Z,13.57
2022-10-05T06:26:14.785Z,13.47
2022-10-05T06:28:43.210Z,13.23
2022-10-05T06:31:29.858Z,13.07
2022-10-05T06:34:19.829Z,12.77
2022-10-05T06:36:55.714Z,13.37
2022-10-05T06:40:02.152Z,12.60
2022-10-05T06:42:50.906Z,13.23
2022-10-05T06:46:00.085Z,12.40
2022-10-05T06:49:14.229Z,12.33
2022-10-05T06:52:08.198Z,11.13
2022-10-05T06:54:48.674Z,12.20
2022-10-05T06:57:31.042Z,12.30
2022-10-05T07:00:02.610Z,13.10
2022-10-05T07:02:45.257Z,13.00
2022-10-05T07:05:40.509Z,11.70
2022-10-05T07:08:19.966Z,11.60
2022-10-05T07:10:52.626Z,12.33
2022-10-05T07:13:31.397Z,11.67
2022-10-05T07:16:45.452Z,10.83
2022-10-05T07:19:37.668Z,10.73
2022-10-05T07:22:34.078Z,11.53
2022-10-05T07:25:13.234Z,12.40
2022-10-05T07:28:05.297Z,12.27
2022-10-05T07:31:00.486Z,11.73
2022-10-05T07:33:45.868Z,12.60
2022-10-05T07:36:37.198Z,11.93
2022-10-05T07:39:23.526Z,12.17
2022-10-05T07:42:03.270Z,12.33
2022-10-05T07:44:41.457Z,11.37
2022-10-05T07:47:22.360Z,11.43
2022-10-05T07:49:59.627Z,11.47
2022-10-05T07:52:42.055Z,10.37
2022-10-05T07:55:25.187Z,9.87
2022-10-05T07:58:13.928Z,10.57
2022-10-05T08:01:03.697Z,9.47
2022-10-05T08:03:43.583Z,9.97
2022-10-05T08:06:46.233Z,10.27
2022-10-05T08:09:37.155Z,8.63
2022-10-05T08:12:09.512Z,8.60
2022-10-05T08:14:54.654Z,8.60
2022-10-05T08:17:40.916Z,8.77
2022-10-05T08:20:18.696Z,8.37
2022-10-05T08:22:57.034Z,9.00
2022-10-05T08:25:47.761Z,8.13
2022-10-05T08:28:34.123Z,9.10
2022-10-05T08:31:24.883Z,7.70
2022-10-05T08:34:04.708Z,7.33
2022-10-05T08:36:40.140Z,7.47
2022-10-05T08:39:16.027Z,7.80
2022-10-05T08:42:03.585Z,7.83
2022-10-05T08:44:45.262Z,8.27
2022-10-05T08:47:40.207Z,7.97
2022-10-05T08:50:35.837Z,7.83
2022-10-05T08:53:18.184Z,7.17
2022-10-05T08:56:19.715Z,6.83
2022-10-05T08:59:16.609Z,7.00
2022-10-05T09:02:03.962Z,6.87
2022-10-05T09:04:42.630Z,6.60
2022-10-05T09:07:28.375Z,6.77
2022-10-05T09:10:25.141Z,6.20
2022-10-05T09:13:25.628Z,5.87
2022-10-05T09:16:21.308Z,5.10
2022-10-05T09:19:17.579Z,5.33
2022-10-05T09:22:21.422Z,4.63
2022-10-05T09:24:53.685Z,4.97
2022-10-05T09:27:43.325Z,4.87
2022-10-05T09:30:20.584Z,4.77
2022-10-05T09:33:08.577Z,4.30
2022-10-05T09:35:53.718Z,4.70
2022-10-05T09:38:51.487Z,4.10
2022-10-05T09:41:44.226Z,4.37
2022-10-05T09:44:11.000Z,4.30
2022-10-05T09:47:19.194Z,4.10
2022-10-05T09:49:57.638Z,4.10
2022-10-05T09:53:01.851Z,4.23
2022-10-05T09:55:47.108Z,4.10
2022-10-05T09:58:33.323Z,3.77
2022-10-05T10:01:09.586Z,3.30
2022-10-05T10:04:13.546Z,3.50
2022-10-05T10:07:04.923Z,4.10
2022-10-05T10:09:59.755Z,3.67
2022-10-05T10:12:50.003Z,3.93
2022-10-05T10:15:40.340Z,4.17
2022-10-05T10:18:27.735Z,3.90
2022-10-05T10:21:33.604Z,3.87
2022-10-05T10:24:14.055Z,3.43
2022-10-05T10:27:08.296Z,3.40
2022-10-05T10:29:57.429Z,4.10
2022-10-05T10:32:42.409Z,3.90
2022-10-05T10:35:11.927Z,3.73
2022-10-05T10:38:12.923Z,4.00
2022-10-05T10:41:06.600Z,3.37
2022-10-05T10:43:55.347Z,3.90
2022-10-05T10:46:59.559Z,3.87
2022-10-05T10:49:31.806Z,3.20
2022-10-05T10:52:17.013Z,3.00
2022-10-05T10:55:05.483Z,3.33
2022-10-05T10:57:44.143Z,3.13
2022-10-05T11:00:17.420Z,3.73
2022-10-05T11:03:05.063Z,3.50
2022-10-05T11:05:48.793Z,3.00
2022-10-05T11:08:16.045Z,2.50
2022-10-05T11:11:13.495Z,3.10
2022-10-05T11:14:27.651Z,3.40
2022-10-05T11:17:18.469Z,2.97
2022-10-05T11:20:02.953Z,2.97
2022-10-05T11:22:50.598Z,4.03
2022-10-05T11:25:27.717Z,4.00
2022-10-05T11:28:10.526Z,3.10
2022-10-05T11:31:04.955Z,3.80
2022-10-05T11:34:09.836Z,3.47
2022-10-05T11:37:13.728Z,3.93
2022-10-05T11:39:44.412Z,3.97
2022-10-05T11:42:20.255Z,3.10
2022-10-05T11:45:15.695Z,3.03
2022-10-05T11:47:45.530Z,3.20
2022-10-05T11:50:26.840Z,3.47
2022-10-05T11:53:14.468Z,3.13
2022-10-05T11:55:43.930Z,2.63
2022-10-05T11:58:23.296Z,2.50
2022-10-05T12:00:56.536Z,2.93
2022-10-05T12:03:49.595Z,2.70
2022-10-05T12:06:34.138Z,2.10
2022-10-05T12:09:04.731Z,2.40
2022-10-05T12:11:57.682Z,2.60
2022-10-05T12:14:30.112Z,2.10
2022-10-05T12:17:02.813Z,2.17
2022-10-05T12:19:36.555Z,2.20
2022-10-05T12:22:04.088Z,2.20
2022-10-05T12:24:36.833Z,2.40
2022-10-05T12:27:14.129Z,2.10
2022-10-05T12:29:44.236Z,2.10
2022-10-05T12:32:21.221Z,2.60
2022-10-05T12:34:50.651Z,2.80
2022-10-05T12:37:52.818Z,2.70
2022-10-05T12:40:36.017Z,2.47
2022-10-05T12:43:21.401Z,2.07
2022-10-05T12:45:58.912Z,2.30
2022-10-05T12:48:39.341Z,2.30
2022-10-05T12:51:05.864Z,2.37
2022-10-05T12:53:48.289Z,2.20
2022-10-05T12:56:30.831Z,2.27
2022-10-05T12:59:31.253Z,1.70
2022-10-05T13:02:06.094Z,2.00
2022-10-05T13:04:58.216Z,2.27
2022-10-05T13:07:56.752Z,2.23
2022-10-05T13:10:35.910Z,2.27
2022-10-05T13:13:35.753Z,2.13
2022-10-05T13:16:17.853Z,1.90
2022-10-05T13:19:12.308Z,1.80
2022-10-05T13:22:10.941Z,2.20
2022-10-05T13:25:00.823Z,2.40
2022-10-05T13:27:31.775Z,2.00
2022-10-05T13:30:17.087Z,1.90
2022-10-05T13:32:48.030Z,1.97
2022-10-05T13:35:38.627Z,2.00
2022-10-05T13:38:15.071Z,1.60
2022-10-05T13:40:53.761Z,1.60
2022-10-05T13:44:05.789Z,1.87
2022-10-05T13:46:49.969Z,1.67
2022-10-05T13:49:27.055Z,1.33
2022-10-05T13:52:19.875Z,1.73
2022-10-05T13:55:14.267Z,1.60
2022-10-05T13:58:06.042Z,1.73
2022-10-05T14:00:43.672Z,1.70
2022-10-05T14:03:34.961Z,1.70
2022-10-05T14:06:10.785Z,1.70
2022-10-05T14:08:51.322Z,1.33
2022-10-05T14:11:23.857Z,1.73
2022-10-05T14:13:52.102Z,1.73
2022-10-05T14:16:22.326Z,1.60
2022-10-05T14:18:58.542Z,1.60
2022-10-05T14:21:30.112Z,1.60
2022-10-05T14:24:42.351Z,1.20
2022-10-05T14:27:23.925Z,1.50
2022-10-05T14:30:08.546Z,1.20
2022-10-05T14:33:07.215Z,1.50
2022-10-05T14:35:51.716Z,1.30
2022-10-05T14:38:35.181Z,1.40
2022-10-05T14:41:07.923Z,1.00
2022-10-05T14:43:35.356Z,1.30
2022-10-05T14:46:27.241Z,1.20
2022-10-05T14:49:13.225Z,1.27
2022-10-05T14:51:42.147Z,1.10
2022-10-05T14:54:52.282Z,1.20
2022-10-05T14:57:34.107Z,1.30
2022-10-05T15:00:04.016Z,1.00
2022-10-05T15:03:04.277Z,1.03
2022-10-05T15:05:44.993Z,1.20
2022-10-05T15:08:11.431Z,1.13
2022-10-05T15:11:08.947Z,1.33
2022-10-05T15:13:42.429Z,1.33
2022-10-05T15:16:19.926Z,1.57
2022-10-05T15:19:21.174Z,1.10
2022-10-05T15:22:41.236Z,2.63
2022-10-05T15:25:22.996Z,1.60
2022-10-05T15:28:08.226Z,2.33
2022-10-05T15:30:42.914Z,1.30
2022-10-05T15:33:18.111Z,2.30
2022-10-05T15:35:44.545Z,1.27
2022-10-05T15:38:27.110Z,2.00
2022-10-05T15:41:15.725Z,2.10
2022-10-05T15:44:15.723Z,1.43
2022-10-05T15:46:56.767Z,1.43
2022-10-05T15:49:43.493Z,1.37
2022-10-05T15:52:27.389Z,1.20
2022-10-05T15:55:20.269Z,1.30
2022-10-05T15:57:59.557Z,1.30
2022-10-05T16:00:27.276Z,1.50
2022-10-05T16:03:25.242Z,1.20
2022-10-05T16:06:18.123Z,1.70
2022-10-05T16:08:58.679Z,1.40
2022-10-05T16:11:31.168Z,1.70
2022-10-05T16:15:08.289Z,1.50
2022-10-05T16:18:06.050Z,1.30
2022-10-05T16:20:38.482Z,1.57
2022-10-05T16:23:28.384Z,1.20
2022-10-05T16:26:19.410Z,1.27
2022-10-05T16:28:59.884Z,1.30
2022-10-05T16:31:37.292Z,1.30
2022-10-05T16:34:17.087Z,1.30
2022-10-05T16:36:49.074Z,1.10
2022-10-05T16:39:30.349Z,1.37
2022-10-05T16:42:06.483Z,1.00
2022-10-05T16:44:50.984Z,1.40
2022-10-05T16:47:43.153Z,1.40
2022-10-05T16:50:20.004Z,1.40
2022-10-05T16:52:54.986Z,1.20
2022-10-05T16:55:30.578Z,1.40
2022-10-05T16:57:59.759Z,1.30
2022-10-05T17:01:10.612Z,1.30
2022-10-05T17:03:54.779Z,1.30
2022-10-05T17:06:54.097Z,1.20
2022-10-05T17:09:45.948Z,1.30
2022-10-05T17:12:38.604Z,1.17
2022-10-05T17:15:30.805Z,1.20
2022-10-05T17:18:12.061Z,1.33
2022-10-05T17:20:42.482Z,1.37
2022-10-05T17:23:31.208Z,1.27
2022-10-05T17:26:33.128Z,1.63
2022-10-05T17:29:12.880Z,1.97
2022-10-05T17:32:18.554Z,2.20
2022-10-05T17:35:04.797Z,1.93
2022-10-05T17:37:38.694Z,2.00
2022-10-05T17:40:30.154Z,1.80
2022-10-05T17:43:25.606Z,1.93
2022-10-05T17:45:55.637Z,2.70
2022-10-05T17:48:42.898Z,3.20
2022-10-05T17:51:56.662Z,3.07
2022-10-05T17:54:42.995Z,1.60
2022-10-05T17:57:09.459Z,1.97
2022-10-05T17:59:55.621Z,1.80
2022-10-05T18:02:28.900Z,2.70
2022-10-05T18:05:12.066Z,1.80
2022-10-05T18:08:16.309Z,2.10
2022-10-05T18:11:16.971Z,2.20
2022-10-05T18:13:49.958Z,1.97
2022-10-05T18:16:54.184Z,1.97
2022-10-05T18:19:23.131Z,1.60
2022-10-05T18:22:06.341Z,1.80
2022-10-05T18:24:52.969Z,1.80
2022-10-05T18:27:34.904Z,2.50
2022-10-05T18:30:31.045Z,1.90
2022-10-05T18:32:57.497Z,2.00
2022-10-05T18:35:42.367Z,2.27
2022-10-05T18:38:21.927Z,1.67
2022-10-05T18:41:14.403Z,3.00
2022-10-05T18:44:00.541Z,4.63
2022-10-05T18:46:44.799Z,3.63
2022-10-05T18:49:43.700Z,2.40
2022-10-05T18:52:26.522Z,2.03
2022-10-05T18:55:32.686Z,1.90
2022-10-05T18:58:17.845Z,2.23
2022-10-05T19:01:21.912Z,1.90
2022-10-05T19:03:54.653Z,2.20
2022-10-05T19:06:26.570Z,2.40
2022-10-05T19:09:19.325Z,2.63
2022-10-05T19:12:14.213Z,2.30
2022-10-05T19:14:49.136Z,2.00
2022-10-05T19:17:18.581Z,2.20
2022-10-05T19:19:54.255Z,2.07
2022-10-05T19:22:48.742Z,2.00
2022-10-05T19:25:43.191Z,2.77
2022-10-05T19:28:20.571Z,2.73
2022-10-05T19:30:47.067Z,2.73
2022-10-05T19:33:26.618Z,2.97
2022-10-05T19:36:06.653Z,3.03
2022-10-05T19:39:01.885Z,2.80
2022-10-05T19:41:35.470Z,3.10
2022-10-05T19:44:24.186Z,2.67
2022-10-05T19:47:01.633Z,2.40
2022-10-05T19:49:43.093Z,2.37
2022-10-05T19:52:13.751Z,2.47
2022-10-05T19:54:41.748Z,2.50
2022-10-05T19:57:17.750Z,2.40
2022-10-05T19:59:48.358Z,2.40
2022-10-05T20:02:16.865Z,2.73
2022-10-05T20:04:45.741Z,2.40
2022-10-05T20:07:15.616Z,2.60
2022-10-05T20:09:59.794Z,2.93
2022-10-05T20:12:52.969Z,2.67
2022-10-05T20:15:53.124Z,2.53
2022-10-05T20:19:03.658Z,2.77
2022-10-05T20:21:39.362Z,3.30
2022-10-05T20:24:10.124Z,3.87
2022-10-05T20:27:03.572Z,4.47
2022-10-05T20:29:37.452Z,4.60
2022-10-05T20:32:15.483Z,4.70
2022-10-05T20:34:44.381Z,5.80
2022-10-05T20:37:13.237Z,5.90
2022-10-05T20:39:40.286Z,4.50
2022-10-05T20:42:07.726Z,3.73
2022-10-05T20:44:34.986Z,2.97
2022-10-05T20:47:01.652Z,4.90
2022-10-05T20:49:30.223Z,4.43
2022-10-05T20:51:58.078Z,3.30
2022-10-05T20:54:25.726Z,3.70
2022-10-05T20:56:54.776Z,4.77
2022-10-05T20:59:22.648Z,3.60
2022-10-05T21:01:49.325Z,3.30
2022-10-05T21:04:22.123Z,2.90
2022-10-05T21:06:48.899Z,3.03
2022-10-05T21:09:19.726Z,3.10
2022-10-05T21:11:50.158Z,3.20
2022-10-05T21:14:17.102Z,3.50
2022-10-05T21:16:45.765Z,3.33
2022-10-05T21:19:14.250Z,3.30
2022-10-05T21:21:45.203Z,2.90
2022-10-05T21:24:13.752Z,3.33
2022-10-05T21:26:41.695Z,3.30
2022-10-05T21:29:12.498Z,3.43
2022-10-05T21:31:40.351Z,3.73
2022-10-05T21:34:07.288Z,3.27
2022-10-05T21:36:34.564Z,3.40
2022-10-05T21:39:01.102Z,3.27
2022-10-05T21:41:27.614Z,3.63
2022-10-05T21:43:54.207Z,3.30
2022-10-05T21:46:25.267Z,3.70
2022-10-05T21:48:52.814Z,3.07
2022-10-05T21:51:20.544Z,3.43
2022-10-05T21:53:51.626Z,2.93
2022-10-05T21:56:22.248Z,3.27
2022-10-05T21:58:50.330Z,3.00
2022-10-05T22:01:22.275Z,3.10
2022-10-05T22:03:49.227Z,2.80
2022-10-05T22:06:15.747Z,3.00
2022-10-05T22:08:42.206Z,3.17
2022-10-05T22:11:15.284Z,3.20
2022-10-05T22:13:47.279Z,3.10
2022-10-05T22:16:15.032Z,3.30
2022-10-05T22:18:42.502Z,3.00
2022-10-05T22:21:12.034Z,3.17
2022-10-05T22:23:43.436Z,3.10
2022-10-05T22:26:12.513Z,3.17
2022-10-05T22:28:40.017Z,3.80
2022-10-05T22:31:09.428Z,3.30
2022-10-05T22:33:36.966Z,3.57
2022-10-05T22:36:05.710Z,3.70
2022-10-05T22:38:32.742Z,3.47
2022-10-05T22:40:59.556Z,3.77
2022-10-05T22:43:27.012Z,3.73
2022-10-05T22:45:54.271Z,3.80
2022-10-05T22:48:20.809Z,3.57
2022-10-05T22:50:47.853Z,3.80
2022-10-05T22:53:14.494Z,3.77
2022-10-05T22:55:40.994Z,4.00
2022-10-05T22:58:07.654Z,3.33
2022-10-05T23:00:56.397Z,4.13
2022-10-05T23:03:20.647Z,3.93
2022-10-05T23:05:47.159Z,4.20
2022-10-05T23:08:13.588Z,3.90
2022-10-05T23:10:40.116Z,4.20
2022-10-05T23:13:08.661Z,4.70
2022-10-05T23:15:35.802Z,4.20
2022-10-05T23:18:02.264Z,4.40
2022-10-05T23:20:29.061Z,4.70
2022-10-05T23:22:55.521Z,4.60
2022-10-05T23:25:22.214Z,4.57
2022-10-05T23:27:48.833Z,4.83
2022-10-05T23:30:15.605Z,4.57
2022-10-05T23:32:44.097Z,4.47
2022-10-05T23:35:12.752Z,4.67
2022-10-05T23:37:44.108Z,4.90
2022-10-05T23:40:13.115Z,4.77
2022-10-05T23:42:40.965Z,5.00
2022-10-05T23:45:10.008Z,5.00
2022-10-05T23:47:36.486Z,5.03
2022-10-05T23:50:04.554Z,5.10
2022-10-05T23:52:31.007Z,5.00
2022-10-05T23:54:57.524Z,5.47
2022-10-05T23:57:24.072Z,5.43
2022-10-05T23:59:50.572Z,4.83
